createdAt,value
2023-05-07T00:00:42.201Z,530.70
2023-05-07T00:01:42.171Z,232.10
2023-05-07T00:02:42.203Z,275.40
2023-05-07T00:03:42.259Z,281.20
2023-05-07T00:04:42.165Z,279.60
2023-05-07T00:05:42.176Z,275.10
2023-05-07T00:06:42.118Z,263.60
2023-05-07T00:07:42.107Z,253.90
2023-05-07T00:08:42.098Z,258.50
2023-05-07T00:09:42.110Z,258.60
2023-05-07T00:10:42.076Z,248.40
2023-05-07T00:11:42.069Z,261.70
2023-05-07T00:12:42.064Z,271.50
2023-05-07T00:13:42.047Z,249.00
2023-05-07T00:14:42.047Z,254.10
2023-05-07T00:15:41.999Z,258.70
2023-05-07T00:16:42.013Z,385.70
2023-05-07T00:17:42.046Z,551.70
2023-05-07T00:18:42.017Z,292.90
2023-05-07T00:19:42.017Z,541.70
2023-05-07T00:20:41.966Z,551.80
2023-05-07T00:21:41.948Z,487.80
2023-05-07T00:22:41.936Z,542.20
2023-05-07T00:23:41.965Z,567.50
2023-05-07T00:24:41.909Z,598.30
2023-05-07T00:25:41.901Z,543.60
2023-05-07T00:26:41.883Z,509.10
2023-05-07T00:27:41.930Z,498.50
2023-05-07T00:28:41.911Z,490.00
2023-05-07T00:29:41.863Z,469.50
2023-05-07T00:30:41.851Z,466.00
2023-05-07T00:31:41.897Z,309.40
2023-05-07T00:32:41.888Z,249.60
2023-05-07T00:33:41.849Z,259.70
2023-05-07T00:34:41.801Z,275.10
2023-05-07T00:35:41.827Z,285.40
2023-05-07T00:36:41.782Z,293.20
2023-05-07T00:37:41.815Z,287.30
2023-05-07T00:38:41.768Z,299.70
2023-05-07T00:39:41.752Z,287.00
2023-05-07T00:40:41.733Z,390.30
2023-05-07T00:41:41.730Z,536.10
2023-05-07T00:42:41.764Z,396.00
2023-05-07T00:43:41.694Z,601.20
2023-05-07T00:44:41.697Z,554.60
2023-05-07T00:45:41.723Z,539.70
2023-05-07T00:46:41.680Z,536.90
2023-05-07T00:47:41.713Z,536.60
2023-05-07T00:48:41.640Z,540.70
2023-05-07T00:49:41.630Z,545.90
2023-05-07T00:50:41.622Z,542.90
2023-05-07T00:51:41.644Z,534.60
2023-05-07T00:52:41.594Z,541.30
2023-05-07T00:53:41.579Z,541.00
2023-05-07T00:54:41.571Z,298.70
2023-05-07T00:55:41.582Z,306.30
2023-05-07T00:56:41.557Z,310.10
2023-05-07T00:57:41.574Z,320.70
2023-05-07T00:58:41.527Z,322.10
2023-05-07T00:59:41.523Z,313.60
2023-05-07T01:00:41.538Z,321.00
2023-05-07T01:01:41.679Z,310.90
2023-05-07T01:02:41.506Z,313.60
2023-05-07T01:03:41.497Z,302.10
2023-05-07T01:04:41.526Z,302.20
2023-05-07T01:05:41.482Z,472.20
2023-05-07T01:06:41.438Z,600.10
2023-05-07T01:07:41.455Z,447.90
2023-05-07T01:08:41.420Z,576.70
2023-05-07T01:09:41.429Z,322.40
2023-05-07T01:10:41.444Z,554.40
2023-05-07T01:11:41.395Z,544.80
2023-05-07T01:12:41.493Z,540.90
2023-05-07T01:13:41.353Z,306.50
2023-05-07T01:14:41.355Z,446.60
2023-05-07T01:15:41.357Z,593.00
2023-05-07T01:16:41.341Z,626.70
2023-05-07T01:17:41.378Z,597.20
2023-05-07T01:18:41.307Z,587.50
2023-05-07T01:19:41.333Z,388.60
2023-05-07T01:20:41.283Z,287.50
2023-05-07T01:21:41.270Z,299.00
2023-05-07T01:22:41.267Z,296.90
2023-05-07T01:23:41.249Z,306.80
2023-05-07T01:24:41.261Z,299.80
2023-05-07T01:25:41.214Z,290.50
2023-05-07T01:26:41.207Z,296.60
2023-05-07T01:27:41.205Z,306.10
2023-05-07T01:28:41.236Z,288.10
2023-05-07T01:29:41.211Z,287.70
2023-05-07T01:30:41.156Z,592.20
2023-05-07T01:31:41.268Z,572.20
2023-05-07T01:32:41.195Z,490.70
2023-05-07T01:33:41.212Z,569.00
2023-05-07T01:34:41.126Z,561.80
2023-05-07T01:35:41.113Z,556.80
2023-05-07T01:36:41.104Z,587.20
2023-05-07T01:37:41.107Z,622.30
2023-05-07T01:38:41.137Z,617.20
2023-05-07T01:39:41.093Z,279.60
2023-05-07T01:40:41.040Z,281.10
2023-05-07T01:41:41.059Z,276.10
2023-05-07T01:42:41.071Z,284.00
2023-05-07T01:43:41.030Z,412.80
2023-05-07T01:44:40.989Z,564.70
2023-05-07T01:45:40.978Z,314.40
2023-05-07T01:46:41.036Z,590.30
2023-05-07T01:47:41.028Z,269.50
2023-05-07T01:48:40.974Z,577.10
2023-05-07T01:49:40.944Z,579.60
2023-05-07T01:50:40.935Z,417.00
2023-05-07T01:51:40.924Z,583.60
2023-05-07T01:52:40.956Z,569.70
2023-05-07T01:53:40.900Z,545.70
2023-05-07T01:54:40.890Z,418.90
2023-05-07T01:55:40.881Z,606.70
2023-05-07T01:56:40.920Z,572.60
2023-05-07T01:57:40.927Z,251.60
2023-05-07T01:58:40.855Z,563.80
2023-05-07T01:59:40.847Z,528.10
2023-05-07T02:00:40.809Z,660.20
2023-05-07T02:01:40.859Z,638.70
2023-05-07T02:02:40.926Z,625.10
2023-05-07T02:03:40.906Z,610.10
2023-05-07T02:04:40.786Z,613.50
2023-05-07T02:05:40.760Z,605.50
2023-05-07T02:06:40.764Z,603.70
2023-05-07T02:07:40.744Z,598.60
2023-05-07T02:08:40.790Z,600.90
2023-05-07T02:09:40.712Z,602.90
2023-05-07T02:10:40.702Z,602.10
2023-05-07T02:11:40.737Z,603.90
2023-05-07T02:12:40.672Z,597.00
2023-05-07T02:13:40.660Z,601.50
2023-05-07T02:14:40.646Z,601.20
2023-05-07T02:15:40.685Z,595.40
2023-05-07T02:16:40.702Z,592.00
2023-05-07T02:17:40.676Z,593.30
2023-05-07T02:18:40.607Z,593.20
2023-05-07T02:19:40.600Z,590.50
2023-05-07T02:20:40.617Z,600.00
2023-05-07T02:21:40.569Z,597.30
2023-05-07T02:22:40.576Z,597.70
2023-05-07T02:23:40.548Z,594.10
2023-05-07T02:24:40.538Z,591.70
2023-05-07T02:25:40.558Z,601.20
2023-05-07T02:26:40.513Z,582.50
2023-05-07T02:27:40.493Z,580.00
2023-05-07T02:28:40.500Z,579.80
2023-05-07T02:29:40.526Z,387.20
2023-05-07T02:30:40.499Z,292.80
2023-05-07T02:31:40.500Z,288.00
2023-05-07T02:32:40.476Z,293.10
2023-05-07T02:33:40.465Z,540.50
2023-05-07T02:34:40.478Z,294.50
2023-05-07T02:35:40.422Z,293.50
2023-05-07T02:36:40.412Z,463.00
2023-05-07T02:37:40.421Z,473.90
2023-05-07T02:38:40.392Z,284.90
2023-05-07T02:39:40.405Z,607.30
2023-05-07T02:40:40.398Z,291.90
2023-05-07T02:41:40.341Z,288.00
2023-05-07T02:42:40.343Z,289.00
2023-05-07T02:43:40.338Z,285.10
2023-05-07T02:44:40.338Z,291.00
2023-05-07T02:45:40.330Z,284.80
2023-05-07T02:46:40.297Z,401.70
2023-05-07T02:47:40.332Z,285.40
2023-05-07T02:48:40.293Z,303.30
2023-05-07T02:49:40.298Z,290.80
2023-05-07T02:50:40.271Z,290.20
2023-05-07T02:51:40.219Z,636.00
2023-05-07T02:52:40.213Z,612.30
2023-05-07T02:53:40.260Z,296.60
2023-05-07T02:54:40.205Z,299.10
2023-05-07T02:55:40.228Z,303.90
2023-05-07T02:56:40.186Z,299.00
2023-05-07T02:57:40.211Z,481.40
2023-05-07T02:58:40.183Z,531.20
2023-05-07T02:59:40.167Z,565.40
2023-05-07T03:00:40.130Z,632.20
2023-05-07T03:01:40.284Z,614.60
2023-05-07T03:02:40.112Z,601.90
2023-05-07T03:03:40.157Z,589.30
2023-05-07T03:04:40.136Z,595.00
2023-05-07T03:05:40.077Z,598.30
2023-05-07T03:06:40.073Z,596.50
2023-05-07T03:07:40.137Z,592.90
2023-05-07T03:08:40.081Z,588.50
2023-05-07T03:09:40.036Z,596.30
2023-05-07T03:10:40.046Z,599.20
2023-05-07T03:11:40.001Z,592.70
2023-05-07T03:12:40.057Z,601.60
2023-05-07T03:13:39.988Z,586.70
2023-05-07T03:14:39.951Z,585.00
2023-05-07T03:15:39.988Z,593.90
2023-05-07T03:16:39.937Z,587.80
2023-05-07T03:17:40.082Z,587.70
2023-05-07T03:18:39.968Z,584.00
2023-05-07T03:19:39.916Z,585.10
2023-05-07T03:20:39.980Z,577.30
2023-05-07T03:21:39.941Z,366.00
2023-05-07T03:22:39.913Z,292.70
2023-05-07T03:23:39.886Z,293.70
2023-05-07T03:24:39.855Z,291.40
2023-05-07T03:25:39.861Z,361.80
2023-05-07T03:26:39.872Z,264.10
2023-05-07T03:27:39.838Z,406.70
2023-05-07T03:28:39.809Z,295.80
2023-05-07T03:29:39.799Z,350.10
2023-05-07T03:30:39.797Z,605.70
2023-05-07T03:31:39.891Z,290.00
2023-05-07T03:32:39.829Z,300.00
2023-05-07T03:33:39.762Z,291.30
2023-05-07T03:34:39.745Z,377.50
2023-05-07T03:35:39.775Z,602.90
2023-05-07T03:36:39.771Z,556.80
2023-05-07T03:37:39.734Z,645.70
2023-05-07T03:38:39.709Z,606.80
2023-05-07T03:39:39.679Z,591.70
2023-05-07T03:40:39.726Z,589.40
2023-05-07T03:41:39.698Z,600.60
2023-05-07T03:42:39.653Z,587.60
2023-05-07T03:43:39.644Z,593.30
2023-05-07T03:44:39.605Z,587.90
2023-05-07T03:45:39.655Z,584.10
2023-05-07T03:46:39.644Z,590.40
2023-05-07T03:47:39.642Z,584.20
2023-05-07T03:48:39.585Z,590.40
2023-05-07T03:49:39.605Z,591.20
2023-05-07T03:50:39.594Z,598.40
2023-05-07T03:51:39.545Z,583.00
2023-05-07T03:52:39.557Z,589.50
2023-05-07T03:53:39.524Z,585.80
2023-05-07T03:54:39.553Z,571.50
2023-05-07T03:55:39.545Z,576.10
2023-05-07T03:56:39.513Z,567.50
2023-05-07T03:57:39.476Z,561.40
2023-05-07T03:58:39.492Z,542.80
2023-05-07T03:59:39.504Z,273.60
2023-05-07T04:00:39.532Z,274.10
2023-05-07T04:01:39.506Z,270.40
2023-05-07T04:02:39.639Z,275.00
2023-05-07T04:03:39.555Z,371.20
2023-05-07T04:04:39.454Z,266.70
2023-05-07T04:05:39.413Z,278.50
2023-05-07T04:06:39.396Z,279.20
2023-05-07T04:07:39.398Z,274.00
2023-05-07T04:08:39.344Z,282.50
2023-05-07T04:09:39.404Z,396.30
2023-05-07T04:10:39.366Z,425.80
2023-05-07T04:11:39.331Z,628.30
2023-05-07T04:12:39.372Z,613.90
2023-05-07T04:13:39.332Z,590.20
2023-05-07T04:14:39.335Z,588.40
2023-05-07T04:15:39.275Z,580.90
2023-05-07T04:16:39.321Z,584.30
2023-05-07T04:17:39.310Z,582.60
2023-05-07T04:18:39.287Z,586.20
2023-05-07T04:19:39.227Z,575.60
2023-05-07T04:20:39.227Z,573.80
2023-05-07T04:21:39.235Z,566.40
2023-05-07T04:22:39.215Z,571.50
2023-05-07T04:23:39.226Z,540.50
2023-05-07T04:24:39.178Z,533.20
2023-05-07T04:25:39.192Z,212.80
2023-05-07T04:26:39.164Z,254.00
2023-05-07T04:27:39.192Z,269.90
2023-05-07T04:28:39.177Z,247.60
2023-05-07T04:29:39.125Z,546.30
2023-05-07T04:30:39.111Z,410.90
2023-05-07T04:31:39.173Z,259.80
2023-05-07T04:32:39.144Z,271.20
2023-05-07T04:33:39.089Z,606.60
2023-05-07T04:34:39.061Z,547.90
2023-05-07T04:35:39.051Z,519.30
2023-05-07T04:36:39.034Z,514.40
2023-05-07T04:37:39.099Z,517.40
2023-05-07T04:38:39.024Z,511.90
2023-05-07T04:39:39.004Z,489.20
2023-05-07T04:40:38.993Z,483.30
2023-05-07T04:41:38.983Z,491.20
2023-05-07T04:42:39.006Z,480.30
2023-05-07T04:43:38.965Z,455.90
2023-05-07T04:44:38.956Z,204.70
2023-05-07T04:45:38.946Z,207.50
2023-05-07T04:46:38.983Z,406.60
2023-05-07T04:47:38.985Z,209.00
2023-05-07T04:48:38.890Z,543.20
2023-05-07T04:49:38.878Z,435.80
2023-05-07T04:50:38.883Z,225.90
2023-05-07T04:51:38.893Z,323.50
2023-05-07T04:52:38.854Z,528.20
2023-05-07T04:53:38.852Z,194.70
2023-05-07T04:54:38.842Z,215.10
2023-05-07T04:55:38.819Z,438.80
2023-05-07T04:56:38.839Z,493.30
2023-05-07T04:57:38.811Z,198.60
2023-05-07T04:58:38.786Z,214.20
2023-05-07T04:59:38.761Z,227.30
2023-05-07T05:00:38.790Z,531.50
2023-05-07T05:01:38.806Z,556.10
2023-05-07T05:02:38.807Z,488.60
2023-05-07T05:03:38.844Z,467.80
2023-05-07T05:04:38.724Z,473.00
2023-05-07T05:05:38.756Z,470.40
2023-05-07T05:06:38.709Z,447.10
2023-05-07T05:07:38.681Z,450.20
2023-05-07T05:08:38.667Z,454.40
2023-05-07T05:09:38.669Z,440.30
2023-05-07T05:10:38.681Z,454.30
2023-05-07T05:11:38.683Z,434.70
2023-05-07T05:12:38.664Z,469.50
2023-05-07T05:13:38.598Z,472.90
2023-05-07T05:14:38.633Z,469.20
2023-05-07T05:15:38.638Z,456.50
2023-05-07T05:16:38.736Z,426.40
2023-05-07T05:17:38.698Z,196.60
2023-05-07T05:18:38.570Z,185.30
2023-05-07T05:19:38.590Z,177.60
2023-05-07T05:20:38.538Z,180.40
2023-05-07T05:21:38.524Z,201.00
2023-05-07T05:22:38.505Z,201.00
2023-05-07T05:23:38.495Z,218.60
2023-05-07T05:24:38.538Z,425.50
2023-05-07T05:25:38.484Z,299.20
2023-05-07T05:26:38.457Z,221.00
2023-05-07T05:27:38.446Z,362.40
2023-05-07T05:28:38.451Z,514.60
2023-05-07T05:29:38.463Z,674.10
2023-05-07T05:30:38.413Z,594.80
2023-05-07T05:31:38.452Z,579.30
2023-05-07T05:32:38.422Z,572.50
2023-05-07T05:33:38.413Z,565.60
2023-05-07T05:34:38.423Z,573.00
2023-05-07T05:35:38.351Z,553.80
2023-05-07T05:36:38.340Z,506.90
2023-05-07T05:37:38.324Z,174.60
2023-05-07T05:38:38.374Z,201.70
2023-05-07T05:39:38.295Z,222.10
2023-05-07T05:40:38.299Z,223.60
2023-05-07T05:41:38.276Z,202.70
2023-05-07T05:42:38.265Z,405.70
2023-05-07T05:43:38.279Z,213.80
2023-05-07T05:44:38.242Z,396.40
2023-05-07T05:45:38.242Z,534.20
2023-05-07T05:46:38.289Z,232.90
2023-05-07T05:47:38.305Z,289.60
2023-05-07T05:48:38.240Z,262.60
2023-05-07T05:49:38.188Z,310.80
2023-05-07T05:50:38.184Z,238.90
2023-05-07T05:51:38.169Z,367.80
2023-05-07T05:52:38.200Z,170.60
2023-05-07T05:53:38.151Z,172.60
2023-05-07T05:54:38.142Z,180.40
2023-05-07T05:55:38.121Z,235.20
2023-05-07T05:56:38.126Z,292.10
2023-05-07T05:57:38.181Z,248.20
2023-05-07T05:58:38.084Z,297.40
2023-05-07T05:59:38.076Z,338.20
2023-05-07T06:00:38.067Z,333.20
2023-05-07T06:01:38.146Z,290.80
2023-05-07T06:02:38.321Z,288.10
2023-05-07T06:03:38.027Z,288.60
2023-05-07T06:04:38.103Z,335.30
2023-05-07T06:05:38.006Z,269.50
2023-05-07T06:06:38.112Z,382.60
2023-05-07T06:07:37.978Z,411.10
2023-05-07T06:08:37.973Z,245.00
2023-05-07T06:09:37.952Z,223.20
2023-05-07T06:10:37.999Z,273.80
2023-05-07T06:11:37.975Z,387.40
2023-05-07T06:12:37.953Z,261.80
2023-05-07T06:13:37.904Z,330.00
2023-05-07T06:14:37.894Z,338.90
2023-05-07T06:15:37.936Z,304.40
2023-05-07T06:16:37.956Z,297.00
2023-05-07T06:17:37.901Z,331.20
2023-05-07T06:18:37.838Z,135.60
2023-05-07T06:19:37.845Z,143.10
2023-05-07T06:20:37.879Z,147.10
2023-05-07T06:21:37.828Z,149.80
2023-05-07T06:22:37.813Z,229.80
2023-05-07T06:23:37.805Z,139.80
2023-05-07T06:24:37.802Z,143.40
2023-05-07T06:25:37.820Z,153.10
2023-05-07T06:26:37.766Z,140.70
2023-05-07T06:27:37.763Z,253.90
2023-05-07T06:28:37.745Z,324.70
2023-05-07T06:29:37.752Z,145.10
2023-05-07T06:30:37.765Z,126.70
2023-05-07T06:31:37.745Z,324.60
2023-05-07T06:32:37.730Z,404.70
2023-05-07T06:33:37.690Z,135.90
2023-05-07T06:34:37.712Z,135.80
2023-05-07T06:35:37.671Z,190.10
2023-05-07T06:36:37.651Z,345.90
2023-05-07T06:37:37.631Z,121.90
2023-05-07T06:38:37.637Z,260.30
2023-05-07T06:39:37.646Z,158.70
2023-05-07T06:40:37.606Z,128.40
2023-05-07T06:41:37.627Z,155.30
2023-05-07T06:42:37.572Z,124.30
2023-05-07T06:43:37.614Z,125.30
2023-05-07T06:44:37.586Z,132.20
2023-05-07T06:45:37.551Z,285.70
2023-05-07T06:46:37.581Z,124.40
2023-05-07T06:47:37.572Z,132.80
2023-05-07T06:48:37.550Z,128.90
2023-05-07T06:49:37.505Z,201.10
2023-05-07T06:50:37.493Z,293.50
2023-05-07T06:51:37.470Z,125.90
2023-05-07T06:52:37.456Z,149.60
2023-05-07T06:53:37.512Z,143.10
2023-05-07T06:54:37.442Z,130.40
2023-05-07T06:55:37.437Z,123.30
2023-05-07T06:56:37.438Z,150.70
2023-05-07T06:57:37.456Z,159.30
2023-05-07T06:58:37.423Z,135.80
2023-05-07T06:59:37.379Z,141.40
2023-05-07T07:00:37.361Z,138.90
2023-05-07T07:01:37.426Z,132.90
2023-05-07T07:02:37.411Z,150.80
2023-05-07T07:03:37.319Z,142.70
2023-05-07T07:04:37.360Z,138.30
2023-05-07T07:05:37.321Z,139.80
2023-05-07T07:06:37.301Z,143.60
2023-05-07T07:07:37.339Z,131.50
2023-05-07T07:08:37.276Z,129.70
2023-05-07T07:09:37.265Z,150.30
2023-05-07T07:10:37.264Z,151.70
2023-05-07T07:11:37.276Z,142.60
2023-05-07T07:12:37.358Z,135.10
2023-05-07T07:13:37.222Z,137.20
2023-05-07T07:14:37.193Z,201.20
2023-05-07T07:15:37.306Z,141.40
2023-05-07T07:16:37.261Z,136.30
2023-05-07T07:17:37.201Z,141.90
2023-05-07T07:18:37.151Z,134.70
2023-05-07T07:19:37.135Z,122.90
2023-05-07T07:20:37.123Z,122.30
2023-05-07T07:21:37.192Z,127.20
2023-05-07T07:22:37.113Z,107.90
2023-05-07T07:23:37.107Z,139.60
2023-05-07T07:24:37.092Z,135.20
2023-05-07T07:25:37.120Z,143.90
2023-05-07T07:26:37.097Z,159.70
2023-05-07T07:27:37.082Z,171.20
2023-05-07T07:28:37.063Z,178.30
2023-05-07T07:29:37.048Z,152.80
2023-05-07T07:30:37.053Z,147.90
2023-05-07T07:31:37.004Z,158.50
2023-05-07T07:32:37.035Z,159.50
2023-05-07T07:33:36.990Z,156.80
2023-05-07T07:34:37.012Z,155.00
2023-05-07T07:35:37.017Z,160.70
2023-05-07T07:36:45.641Z,155.60
2023-05-07T07:37:37.937Z,150.30
2023-05-07T07:38:36.949Z,162.70
2023-05-07T07:39:36.960Z,154.30
2023-05-07T07:40:36.889Z,163.40
2023-05-07T07:41:36.893Z,150.60
2023-05-07T07:42:36.894Z,147.40
2023-05-07T07:43:36.875Z,145.80
2023-05-07T07:44:36.913Z,198.70
2023-05-07T07:45:36.861Z,95.20
2023-05-07T07:46:36.956Z,123.20
2023-05-07T07:47:36.886Z,135.40
2023-05-07T07:48:36.839Z,129.60
2023-05-07T07:49:36.834Z,282.70
2023-05-07T07:50:44.514Z,81.00
2023-05-07T07:51:37.764Z,84.20
2023-05-07T07:52:36.766Z,86.30
2023-05-07T07:53:36.791Z,95.70
2023-05-07T07:54:36.743Z,85.30
2023-05-07T07:55:36.735Z,93.00
2023-05-07T07:56:36.731Z,105.20
2023-05-07T07:57:36.700Z,107.20
2023-05-07T07:58:36.741Z,122.60
2023-05-07T07:59:36.697Z,118.50
2023-05-07T08:00:36.667Z,129.50
2023-05-07T08:01:36.673Z,130.10
2023-05-07T08:02:36.810Z,157.50
2023-05-07T08:03:36.764Z,159.10
2023-05-07T08:04:36.903Z,131.70
2023-05-07T08:05:36.610Z,146.80
2023-05-07T08:06:36.661Z,140.90
2023-05-07T08:07:36.641Z,132.20
2023-05-07T08:08:36.610Z,134.00
2023-05-07T08:09:36.570Z,133.80
2023-05-07T08:10:36.567Z,136.20
2023-05-07T08:11:36.556Z,139.60
2023-05-07T08:12:36.600Z,126.00
2023-05-07T08:13:36.560Z,146.10
2023-05-07T08:14:36.512Z,117.50
2023-05-07T08:15:36.526Z,117.40
2023-05-07T08:16:36.578Z,125.90
2023-05-07T08:17:36.524Z,113.40
2023-05-07T08:18:36.453Z,124.90
2023-05-07T08:19:36.452Z,138.10
2023-05-07T08:20:36.454Z,117.40
2023-05-07T08:21:36.475Z,122.90
2023-05-07T08:22:36.446Z,131.40
2023-05-07T08:23:36.411Z,137.50
2023-05-07T08:24:36.401Z,130.90
2023-05-07T08:25:36.402Z,131.90
2023-05-07T08:26:36.405Z,110.10
2023-05-07T08:27:36.368Z,116.40
2023-05-07T08:28:36.361Z,128.00
2023-05-07T08:29:36.354Z,116.20
2023-05-07T08:30:36.368Z,120.30
2023-05-07T08:31:36.371Z,122.70
2023-05-07T08:32:36.374Z,111.10
2023-05-07T08:33:36.305Z,101.30
2023-05-07T08:34:36.312Z,93.20
2023-05-07T08:35:36.295Z,93.10
2023-05-07T08:36:36.292Z,81.70
2023-05-07T08:37:36.268Z,79.60
2023-05-07T08:38:36.240Z,89.40
2023-05-07T08:39:36.252Z,78.90
2023-05-07T08:40:36.272Z,77.20
2023-05-07T08:41:36.202Z,87.20
2023-05-07T08:42:36.190Z,73.10
2023-05-07T08:43:36.205Z,76.10
2023-05-07T08:44:36.211Z,83.60
2023-05-07T08:45:36.178Z,72.90
2023-05-07T08:46:36.188Z,71.20
2023-05-07T08:47:36.151Z,230.80
2023-05-07T08:48:36.126Z,71.90
2023-05-07T08:49:36.139Z,64.40
2023-05-07T08:50:36.096Z,82.90
2023-05-07T08:51:36.081Z,62.50
2023-05-07T08:52:36.083Z,59.80
2023-05-07T08:53:36.102Z,63.50
2023-05-07T08:54:36.076Z,70.90
2023-05-07T08:55:36.042Z,83.30
2023-05-07T08:56:36.030Z,92.20
2023-05-07T08:57:36.009Z,127.90
2023-05-07T08:58:36.062Z,112.40
2023-05-07T08:59:36.023Z,106.90
2023-05-07T09:00:35.977Z,84.90
2023-05-07T09:01:36.000Z,89.00
2023-05-07T09:02:35.975Z,55.90
2023-05-07T09:03:36.064Z,61.70
2023-05-07T09:04:35.934Z,55.40
2023-05-07T09:05:35.927Z,48.00
2023-05-07T09:06:35.914Z,56.60
2023-05-07T09:07:35.909Z,56.60
2023-05-07T09:08:35.920Z,55.70
2023-05-07T09:09:35.889Z,53.90
2023-05-07T09:10:35.860Z,41.50
2023-05-07T09:11:35.852Z,43.60
2023-05-07T09:12:35.886Z,43.00
2023-05-07T09:13:35.864Z,52.80
2023-05-07T09:14:35.817Z,36.90
2023-05-07T09:15:35.800Z,41.80
2023-05-07T09:16:35.803Z,40.30
2023-05-07T09:17:35.878Z,46.80
2023-05-07T09:18:35.755Z,40.70
2023-05-07T09:19:35.746Z,38.80
2023-05-07T09:20:35.755Z,41.60
2023-05-07T09:21:35.745Z,39.90
2023-05-07T09:22:35.746Z,45.20
2023-05-07T09:23:35.720Z,46.30
2023-05-07T09:24:35.703Z,55.70
2023-05-07T09:25:35.694Z,50.80
2023-05-07T09:26:35.731Z,51.00
2023-05-07T09:27:35.711Z,48.60
2023-05-07T09:28:35.666Z,52.90
2023-05-07T09:29:35.640Z,56.20
2023-05-07T09:30:35.642Z,54.10
2023-05-07T09:31:35.719Z,47.40
2023-05-07T09:32:35.627Z,44.30
2023-05-07T09:33:35.593Z,40.40
2023-05-07T09:34:35.577Z,52.20
2023-05-07T09:35:35.582Z,42.40
2023-05-07T09:36:35.589Z,43.30
2023-05-07T09:37:35.594Z,48.20
2023-05-07T09:38:35.536Z,46.60
2023-05-07T09:39:35.524Z,47.90
2023-05-07T09:40:35.558Z,47.40
2023-05-07T09:41:35.540Z,49.20
2023-05-07T09:42:35.498Z,49.90
2023-05-07T09:43:35.499Z,51.50
2023-05-07T09:44:35.481Z,60.80
2023-05-07T09:45:35.551Z,63.20
2023-05-07T09:46:35.458Z,62.90
2023-05-07T09:47:35.507Z,62.00
2023-05-07T09:48:35.434Z,59.80
2023-05-07T09:49:35.437Z,47.80
2023-05-07T09:50:35.418Z,45.90
2023-05-07T09:51:35.389Z,45.60
2023-05-07T09:52:35.372Z,44.90
2023-05-07T09:53:35.378Z,42.80
2023-05-07T09:54:35.361Z,46.70
2023-05-07T09:55:35.394Z,44.50
2023-05-07T09:56:35.354Z,45.50
2023-05-07T09:57:35.332Z,45.70
2023-05-07T09:58:35.304Z,47.30
2023-05-07T09:59:35.343Z,52.40
2023-05-07T10:00:35.337Z,49.80
2023-05-07T10:01:35.333Z,49.10
2023-05-07T10:02:35.319Z,50.40
2023-05-07T10:03:35.284Z,50.10
2023-05-07T10:04:35.295Z,56.30
2023-05-07T10:05:35.248Z,76.00
2023-05-07T10:06:35.227Z,78.30
2023-05-07T10:07:35.230Z,55.50
2023-05-07T10:08:35.240Z,69.90
2023-05-07T10:09:35.219Z,131.10
2023-05-07T10:10:35.186Z,47.80
2023-05-07T10:11:35.177Z,50.70
2023-05-07T10:12:35.209Z,86.40
2023-05-07T10:13:35.208Z,38.10
2023-05-07T10:14:35.146Z,223.10
2023-05-07T10:15:35.117Z,42.60
2023-05-07T10:16:35.105Z,132.10
2023-05-07T10:17:35.133Z,47.30
2023-05-07T10:18:35.159Z,52.10
2023-05-07T10:19:35.082Z,56.20
2023-05-07T10:20:35.043Z,61.80
2023-05-07T10:21:35.049Z,86.70
2023-05-07T10:22:35.064Z,69.10
2023-05-07T10:23:35.085Z,78.30
2023-05-07T10:24:35.083Z,61.80
2023-05-07T10:25:35.025Z,55.10
2023-05-07T10:26:35.027Z,49.60
2023-05-07T10:27:35.015Z,56.00
2023-05-07T10:28:34.986Z,56.30
2023-05-07T10:29:35.101Z,59.40
2023-05-07T10:30:36.792Z,53.20
2023-05-07T10:31:35.034Z,65.80
2023-05-07T10:32:35.009Z,74.50
2023-05-07T10:33:34.918Z,75.90
2023-05-07T10:34:34.906Z,73.30
2023-05-07T10:35:34.921Z,70.30
2023-05-07T10:36:36.946Z,78.50
2023-05-07T10:37:34.906Z,76.70
2023-05-07T10:38:34.860Z,85.80
2023-05-07T10:39:34.861Z,76.60
2023-05-07T10:40:34.838Z,89.20
2023-05-07T10:41:34.860Z,88.70
2023-05-07T10:42:34.828Z,148.00
2023-05-07T10:43:34.804Z,76.30
2023-05-07T10:44:34.813Z,218.60
2023-05-07T10:45:34.792Z,75.50
2023-05-07T10:46:34.867Z,77.30
2023-05-07T10:47:34.764Z,73.20
2023-05-07T10:48:34.785Z,328.40
2023-05-07T10:49:34.719Z,68.90
2023-05-07T10:50:34.779Z,66.60
2023-05-07T10:51:34.739Z,148.60
2023-05-07T10:52:34.712Z,56.90
2023-05-07T10:53:34.669Z,304.20
2023-05-07T10:54:36.309Z,107.90
2023-05-07T10:55:34.710Z,69.40
2023-05-07T10:56:34.657Z,67.10
2023-05-07T10:57:34.633Z,62.80
2023-05-07T10:58:34.660Z,51.60
2023-05-07T10:59:34.611Z,155.60
2023-05-07T11:00:39.372Z,59.60
2023-05-07T11:01:34.617Z,58.40
2023-05-07T11:02:34.618Z,100.90
2023-05-07T11:03:34.585Z,68.40
2023-05-07T11:04:34.632Z,284.80
2023-05-07T11:05:37.329Z,63.30
2023-05-07T11:06:34.551Z,79.00
2023-05-07T11:07:34.527Z,83.10
2023-05-07T11:08:34.527Z,83.40
2023-05-07T11:09:34.600Z,283.30
2023-05-07T11:10:34.510Z,72.50
2023-05-07T11:11:36.105Z,337.50
2023-05-07T11:12:34.483Z,55.70
2023-05-07T11:13:34.453Z,65.50
2023-05-07T11:14:34.485Z,108.80
2023-05-07T11:15:34.430Z,75.10
2023-05-07T11:16:34.441Z,75.10
2023-05-07T11:17:37.013Z,82.40
2023-05-07T11:18:34.419Z,55.00
2023-05-07T11:19:34.402Z,163.30
2023-05-07T11:20:34.372Z,64.30
2023-05-07T11:21:34.351Z,81.00
2023-05-07T11:22:34.358Z,197.40
2023-05-07T11:23:34.389Z,56.10
2023-05-07T11:24:34.335Z,132.00
2023-05-07T11:25:34.334Z,41.70
2023-05-07T11:26:34.336Z,58.60
2023-05-07T11:27:34.294Z,170.80
2023-05-07T11:28:34.332Z,59.70
2023-05-07T11:29:34.283Z,119.40
2023-05-07T11:30:34.256Z,65.40
2023-05-07T11:31:38.952Z,55.70
2023-05-07T11:32:34.350Z,56.50
2023-05-07T11:33:34.332Z,57.60
2023-05-07T11:34:34.215Z,57.80
2023-05-07T11:35:36.908Z,55.40
2023-05-07T11:36:34.219Z,53.10
2023-05-07T11:37:34.212Z,99.20
2023-05-07T11:38:34.175Z,58.90
2023-05-07T11:39:34.177Z,135.50
2023-05-07T11:40:34.181Z,58.90
2023-05-07T11:41:34.185Z,140.20
2023-05-07T11:42:34.170Z,49.30
2023-05-07T11:43:34.130Z,51.30
2023-05-07T11:44:34.096Z,207.30
2023-05-07T11:45:34.125Z,60.80
2023-05-07T11:46:34.095Z,234.40
2023-05-07T11:47:34.148Z,75.30
2023-05-07T11:48:34.096Z,80.30
2023-05-07T11:49:34.034Z,74.00
2023-05-07T11:50:34.033Z,138.40
2023-05-07T11:51:34.063Z,187.30
2023-05-07T11:52:34.062Z,84.60
2023-05-07T11:53:34.001Z,308.10
2023-05-07T11:54:34.005Z,60.60
2023-05-07T11:55:33.963Z,65.80
2023-05-07T11:56:34.046Z,151.10
2023-05-07T11:57:33.946Z,66.90
2023-05-07T11:58:33.962Z,328.00
2023-05-07T11:59:33.941Z,78.20
2023-05-07T12:00:33.932Z,139.80
2023-05-07T12:01:33.933Z,92.00
2023-05-07T12:02:33.969Z,79.20
2023-05-07T12:03:36.511Z,260.60
2023-05-07T12:04:33.889Z,58.30
2023-05-07T12:05:33.880Z,100.10
2023-05-07T12:06:33.894Z,58.00
2023-05-07T12:07:33.852Z,44.60
2023-05-07T12:08:33.830Z,60.60
2023-05-07T12:09:33.825Z,57.60
2023-05-07T12:10:33.851Z,95.80
2023-05-07T12:11:33.856Z,57.40
2023-05-07T12:12:33.803Z,177.40
2023-05-07T12:13:33.782Z,58.30
2023-05-07T12:14:33.759Z,42.40
2023-05-07T12:15:33.779Z,39.20
2023-05-07T12:16:33.805Z,52.50
2023-05-07T12:17:33.820Z,54.90
2023-05-07T12:18:33.734Z,47.10
2023-05-07T12:19:33.717Z,60.90
2023-05-07T12:20:33.725Z,44.00
2023-05-07T12:21:33.753Z,42.90
2023-05-07T12:22:33.702Z,34.00
2023-05-07T12:23:33.652Z,43.70
2023-05-07T12:24:33.695Z,41.00
2023-05-07T12:25:33.672Z,37.30
2023-05-07T12:26:33.635Z,44.30
2023-05-07T12:27:33.609Z,52.90
2023-05-07T12:28:33.637Z,43.60
2023-05-07T12:29:33.619Z,38.80
2023-05-07T12:30:33.584Z,44.70
2023-05-07T12:31:33.619Z,34.20
2023-05-07T12:32:33.605Z,33.80
2023-05-07T12:33:33.552Z,42.10
2023-05-07T12:34:33.632Z,40.20
2023-05-07T12:35:33.523Z,40.10